createdAt,value
2022-08-16T00:00:20.475Z,100022.59
2022-08-16T00:02:53.142Z,100029.94
2022-08-16T00:05:25.357Z,100027.78
2022-08-16T00:07:58.981Z,100022.91
2022-08-16T00:10:33.224Z,100017.50
2022-08-16T00:13:04.442Z,100023.22
2022-08-16T00:15:51.420Z,100013.44
2022-08-16T00:18:29.512Z,100009.91
2022-08-16T00:21:00.205Z,100016.72
2022-08-16T00:23:34.462Z,100008.59
2022-08-16T00:26:36.073Z,100011.53
2022-08-16T00:29:00.264Z,100022.41
2022-08-16T00:31:59.558Z,100021.59
2022-08-16T00:34:44.401Z,100030.56
2022-08-16T00:37:17.361Z,100031.66
2022-08-16T00:39:58.268Z,100028.41
2022-08-16T00:42:32.277Z,100040.91
2022-08-16T00:45:08.152Z,100033.31
2022-08-16T00:47:49.417Z,100021.38
2022-08-16T00:50:36.527Z,100033.84
2022-08-16T00:53:07.321Z,100039.56
2022-08-16T00:55:40.089Z,100044.72
2022-08-16T00:58:12.994Z,100055.84
2022-08-16T01:00:53.969Z,100057.78
2022-08-16T01:03:34.931Z,100057.78
2022-08-16T01:06:40.481Z,100066.47
2022-08-16T01:09:00.422Z,100062.13
2022-08-16T01:11:30.816Z,100062.13
2022-08-16T01:14:05.520Z,100064.84
2022-08-16T01:16:36.514Z,100066.75
2022-08-16T01:19:19.639Z,100069.22
2022-08-16T01:21:56.141Z,100065.69
2022-08-16T01:24:55.390Z,100070.56
2022-08-16T01:27:38.585Z,100076.25
2022-08-16T01:30:20.260Z,100072.19
2022-08-16T01:33:01.834Z,100061.59
2022-08-16T01:35:52.354Z,100069.75
2022-08-16T01:38:28.267Z,100068.94
2022-08-16T01:41:05.520Z,100068.13
2022-08-16T01:43:40.144Z,100076.56
2022-08-16T01:46:38.422Z,100080.06
2022-08-16T01:49:20.373Z,100077.91
2022-08-16T01:51:55.167Z,100080.91
2022-08-16T01:54:32.783Z,100080.09
2022-08-16T01:57:11.560Z,100083.34
2022-08-16T01:59:43.673Z,100080.63
2022-08-16T02:02:27.295Z,100087.16
2022-08-16T02:05:00.306Z,100090.66
2022-08-16T02:07:30.807Z,100081.16
2022-08-16T02:10:02.392Z,100078.44
2022-08-16T02:12:51.868Z,100075.19
2022-08-16T02:15:26.067Z,100071.94
2022-08-16T02:18:01.115Z,100073.03
2022-08-16T02:20:42.659Z,100078.72
2022-08-16T02:23:17.812Z,100087.16
2022-08-16T02:25:52.213Z,100099.38
2022-08-16T02:28:27.984Z,100088.47
2022-08-16T02:31:02.609Z,100091.47
2022-08-16T02:33:43.704Z,100099.59
2022-08-16T02:36:48.293Z,100095.53
2022-08-16T02:39:19.733Z,100103.97
2022-08-16T02:41:56.263Z,100098.53
2022-08-16T02:44:31.401Z,100096.91
2022-08-16T02:47:03.085Z,100096.91
2022-08-16T02:50:52.164Z,100100.69
2022-08-16T02:52:29.503Z,100102.06
2022-08-16T02:55:06.370Z,100099.34
2022-08-16T02:57:41.637Z,100101.75
2022-08-16T03:00:34.023Z,100097.97
2022-08-16T03:03:05.388Z,100108.00
2022-08-16T03:05:41.327Z,100097.41
2022-08-16T03:08:50.343Z,100095.78
2022-08-16T03:11:03.052Z,100102.84
2022-08-16T03:13:40.034Z,100102.28
2022-08-16T03:16:38.144Z,100103.38
2022-08-16T03:19:05.123Z,100116.13
2022-08-16T03:21:38.299Z,100107.44
2022-08-16T03:24:28.211Z,100105.53
2022-08-16T03:27:02.879Z,100108.00
2022-08-16T03:29:35.716Z,100097.69
2022-08-16T03:32:10.077Z,100105.53
2022-08-16T03:34:43.811Z,100110.97
2022-08-16T03:37:20.320Z,100118.03
2022-08-16T03:39:56.465Z,100116.41
2022-08-16T03:42:31.993Z,100115.31
2022-08-16T03:45:03.259Z,100115.03
2022-08-16T03:47:39.458Z,100105.25
2022-08-16T03:50:26.094Z,100109.34
2022-08-16T03:53:03.140Z,100110.97
2022-08-16T03:55:45.674Z,100109.34
2022-08-16T03:58:16.624Z,100109.88
2022-08-16T04:00:49.388Z,100121.25
2022-08-16T04:03:32.252Z,100117.47
2022-08-16T04:06:03.063Z,100116.66
2022-08-16T04:08:34.721Z,100120.72
2022-08-16T04:11:04.961Z,100134.25
2022-08-16T04:14:00.624Z,100130.75
2022-08-16T04:16:28.219Z,100132.09
2022-08-16T04:19:09.553Z,100145.94
2022-08-16T04:21:46.177Z,100140.50
2022-08-16T04:24:18.716Z,100148.63
2022-08-16T04:26:49.735Z,100146.75
2022-08-16T04:29:24.478Z,100150.00
2022-08-16T04:31:58.303Z,100151.09
2022-08-16T04:34:39.674Z,100152.19
2022-08-16T04:37:11.090Z,100152.47
2022-08-16T04:39:47.175Z,100146.50
2022-08-16T04:42:29.724Z,100143.53
2022-08-16T04:45:07.006Z,100143.25
2022-08-16T04:47:38.921Z,100152.19
2022-08-16T04:50:19.967Z,100149.50
2022-08-16T04:53:25.486Z,100155.47
2022-08-16T04:55:56.001Z,100153.56
2022-08-16T04:58:44.515Z,100159.03
2022-08-16T05:01:17.902Z,100162.03
2022-08-16T05:04:00.419Z,100162.56
2022-08-16T05:06:46.919Z,100166.09
2022-08-16T05:09:26.305Z,100160.41
2022-08-16T05:11:58.884Z,100160.94
2022-08-16T05:14:45.779Z,100161.50
2022-08-16T05:17:20.238Z,100167.72
2022-08-16T05:19:58.301Z,100173.97
2022-08-16T05:22:44.501Z,100171.25
2022-08-16T05:25:18.890Z,100177.81
2022-08-16T05:27:55.427Z,100175.63
2022-08-16T05:30:35.612Z,100171.59
2022-08-16T05:33:16.896Z,100165.88
2022-08-16T05:35:54.938Z,100175.38
2022-08-16T05:38:44.385Z,100171.03
2022-08-16T05:41:18.743Z,100181.91
2022-08-16T05:43:49.280Z,100177.84
2022-08-16T05:46:30.446Z,100181.09
2022-08-16T05:49:08.854Z,100181.91
2022-08-16T05:51:41.922Z,100179.16
2022-08-16T05:54:23.829Z,100178.91
2022-08-16T05:56:57.911Z,100182.44
2022-08-16T05:59:31.199Z,100184.38
2022-08-16T06:02:01.813Z,100187.59
2022-08-16T06:04:37.578Z,100190.31
2022-08-16T06:07:25.223Z,100189.19
2022-08-16T06:10:09.755Z,100193.53
2022-08-16T06:12:41.240Z,100187.81
2022-08-16T06:15:15.064Z,100195.69
2022-08-16T06:17:47.950Z,100197.00
2022-08-16T06:20:35.980Z,100204.84
2022-08-16T06:23:19.611Z,100192.06
2022-08-16T06:26:02.114Z,100192.56
2022-08-16T06:28:37.152Z,100203.38
2022-08-16T06:31:14.426Z,100209.88
2022-08-16T06:33:48.401Z,100206.28
2022-08-16T06:36:24.138Z,100207.59
2022-08-16T06:39:17.671Z,100212.19
2022-08-16T06:42:00.831Z,100218.69
2022-08-16T06:44:49.981Z,100220.31
2022-08-16T06:47:53.245Z,100229.56
2022-08-16T06:50:28.669Z,100229.00
2022-08-16T06:53:06.811Z,100234.94
2022-08-16T06:55:43.310Z,100240.06
2022-08-16T06:58:21.892Z,100242.75
2022-08-16T07:00:56.424Z,100237.28
2022-08-16T07:03:32.359Z,100241.84
2022-08-16T07:06:21.706Z,100247.53
2022-08-16T07:08:57.390Z,100241.22
2022-08-16T07:11:48.027Z,100250.16
2022-08-16T07:14:31.605Z,100256.41
2022-08-16T07:17:08.010Z,100260.97
2022-08-16T07:20:30.199Z,100260.09
2022-08-16T07:22:40.091Z,100261.66
2022-08-16T07:25:18.540Z,100258.16
2022-08-16T07:27:49.636Z,100253.47
2022-08-16T07:30:45.538Z,100253.94
2022-08-16T07:33:52.313Z,100262.13
2022-08-16T07:36:22.947Z,100257.13
2022-08-16T07:38:55.159Z,100259.75
2022-08-16T07:41:27.170Z,100257.16
2022-08-16T07:44:01.987Z,100257.91
2022-08-16T07:46:39.693Z,100264.09
2022-08-16T07:49:22.766Z,100273.22
2022-08-16T07:51:56.021Z,100270.22
2022-08-16T07:54:37.920Z,100270.69
2022-08-16T07:57:12.995Z,100268.88
2022-08-16T07:59:46.361Z,100279.94
2022-08-16T08:02:21.183Z,100280.13
2022-08-16T08:04:59.295Z,100284.31
2022-08-16T08:07:33.226Z,100288.31
2022-08-16T08:10:11.038Z,100283.53
2022-08-16T08:12:43.869Z,100281.09
2022-08-16T08:15:15.509Z,100292.63
2022-08-16T08:18:30.346Z,100278.88
2022-08-16T08:20:59.123Z,100282.97
2022-08-16T08:23:31.227Z,100283.41
2022-08-16T08:26:01.968Z,100292.53
2022-08-16T08:28:33.640Z,100288.31
2022-08-16T08:31:07.857Z,100294.41
2022-08-16T08:33:47.161Z,100302.34
2022-08-16T08:36:25.343Z,100299.53
2022-08-16T08:39:12.945Z,100295.63
2022-08-16T08:41:43.896Z,100300.19
2022-08-16T08:44:28.835Z,100300.84
2022-08-16T08:47:09.314Z,100305.88
2022-08-16T08:49:47.038Z,100306.69
2022-08-16T08:52:34.128Z,100307.72
2022-08-16T08:55:10.874Z,100306.16
2022-08-16T08:57:43.497Z,100307.06
2022-08-16T09:00:32.148Z,100307.06
2022-08-16T09:03:20.663Z,100306.97
2022-08-16T09:05:54.395Z,100309.81
2022-08-16T09:08:27.319Z,100311.63
2022-08-16T09:11:04.765Z,100310.69
2022-08-16T09:13:38.275Z,100315.75
2022-08-16T09:17:03.092Z,100320.91
2022-08-16T09:22:01.233Z,100315.94
2022-08-16T09:24:46.396Z,100309.94
2022-08-16T09:27:25.072Z,100317.91
2022-08-16T09:29:59.950Z,100311.72
2022-08-16T09:32:31.360Z,100313.13
2022-08-16T09:35:03.126Z,100318.59
2022-08-16T09:37:37.167Z,100306.03
2022-08-16T09:40:33.312Z,100311.38
2022-08-16T09:43:01.173Z,100302.22
2022-08-16T09:45:33.186Z,100307.41
2022-08-16T09:48:06.691Z,100319.03
2022-08-16T09:50:39.832Z,100312.13
2022-08-16T09:53:16.661Z,100305.66
2022-08-16T09:55:50.126Z,100308.81
2022-08-16T09:58:41.417Z,100297.00
2022-08-16T10:01:11.305Z,100304.63
2022-08-16T10:04:01.507Z,100305.50
2022-08-16T10:06:33.295Z,100300.75
2022-08-16T10:09:08.355Z,100302.94
2022-08-16T10:11:53.791Z,100310.69
2022-08-16T10:14:24.933Z,100314.72
2022-08-16T10:17:05.091Z,100310.44
2022-08-16T10:19:35.788Z,100314.34
2022-08-16T10:22:05.898Z,100317.19
2022-08-16T10:24:38.754Z,100308.25
2022-08-16T10:27:25.864Z,100306.47
2022-08-16T10:30:00.607Z,100304.03
2022-08-16T10:32:32.473Z,100304.53
2022-08-16T10:35:03.832Z,100309.75
2022-08-16T10:37:36.167Z,100313.44
2022-08-16T10:40:29.652Z,100302.59
2022-08-16T10:43:00.872Z,100304.66
2022-08-16T10:45:37.192Z,100305.94
2022-08-16T10:48:27.951Z,100304.28
2022-08-16T10:50:59.958Z,100307.38
2022-08-16T10:53:33.174Z,100298.91
2022-08-16T10:56:52.698Z,100301.97
2022-08-16T11:07:52.621Z,100307.34
2022-08-16T11:16:27.414Z,100307.00
2022-08-16T11:19:03.963Z,100300.31
2022-08-16T11:22:22.445Z,100310.34
2022-08-16T11:24:42.150Z,100303.38
2022-08-16T11:27:21.477Z,100294.34
2022-08-16T11:29:58.582Z,100303.63
2022-08-16T11:32:33.643Z,100303.22
2022-08-16T11:35:14.299Z,100304.25
2022-08-16T11:40:44.243Z,100308.59
2022-08-16T11:43:15.876Z,100311.63
2022-08-16T11:45:53.751Z,100300.53
2022-08-16T11:48:25.904Z,100309.44
2022-08-16T11:50:57.046Z,100311.13
2022-08-16T11:53:28.423Z,100310.66
2022-08-16T11:56:09.193Z,100315.38
2022-08-16T11:58:40.055Z,100304.66
2022-08-16T12:01:15.339Z,100312.75
2022-08-16T12:03:46.522Z,100300.22
2022-08-16T12:06:24.513Z,100307.69
2022-08-16T12:09:01.013Z,100311.47
2022-08-16T12:11:33.305Z,100299.81
2022-08-16T12:14:04.732Z,100309.03
2022-08-16T12:16:40.533Z,100310.63
2022-08-16T12:19:20.135Z,100307.50
2022-08-16T12:21:58.363Z,100310.88
2022-08-16T12:24:31.104Z,100306.19
2022-08-16T12:27:01.687Z,100299.41
2022-08-16T12:29:32.542Z,100299.09
2022-08-16T12:32:35.765Z,100301.44
2022-08-16T12:34:55.140Z,100308.06
2022-08-16T12:37:25.949Z,100304.66
2022-08-16T12:39:58.823Z,100309.09
2022-08-16T12:42:35.296Z,100304.59
2022-08-16T12:45:06.942Z,100297.28
2022-08-16T12:47:55.111Z,100296.09
2022-08-16T12:50:33.234Z,100294.66
2022-08-16T12:53:03.976Z,100287.31
2022-08-16T12:55:41.777Z,100289.69
2022-08-16T12:58:48.661Z,100295.16
2022-08-16T13:01:04.468Z,100291.06
2022-08-16T13:03:40.635Z,100288.13
2022-08-16T13:06:12.564Z,100291.00
2022-08-16T13:08:45.353Z,100283.91
2022-08-16T13:11:17.761Z,100288.09
2022-08-16T13:13:47.865Z,100286.03
2022-08-16T13:16:25.133Z,100270.56
2022-08-16T13:18:59.876Z,100279.41
2022-08-16T13:21:30.658Z,100281.47
2022-08-16T13:24:00.512Z,100286.28
2022-08-16T13:26:33.986Z,100282.31
2022-08-16T13:29:03.813Z,100285.38
2022-08-16T13:31:35.624Z,100279.91
2022-08-16T13:34:09.932Z,100281.72
2022-08-16T13:36:49.573Z,100279.53
2022-08-16T13:39:24.425Z,100279.22
2022-08-16T13:41:54.575Z,100275.03
2022-08-16T13:44:48.469Z,100278.78
2022-08-16T13:47:14.333Z,100273.28
2022-08-16T13:49:46.918Z,100282.81
2022-08-16T13:52:16.936Z,100278.78
2022-08-16T13:54:47.582Z,100271.22
2022-08-16T13:57:17.522Z,100276.91
2022-08-16T13:59:50.103Z,100273.53
2022-08-16T14:02:20.852Z,100282.75
2022-08-16T14:05:05.050Z,100269.25
2022-08-16T14:07:40.719Z,100271.88
2022-08-16T14:10:13.947Z,100269.75
2022-08-16T14:12:45.241Z,100265.72
2022-08-16T14:15:18.641Z,100269.59
2022-08-16T14:18:19.908Z,100270.25
2022-08-16T14:20:40.957Z,100268.50
2022-08-16T14:23:21.882Z,100261.56
2022-08-16T14:25:54.550Z,100264.00
2022-08-16T14:28:27.211Z,100268.03
2022-08-16T14:30:57.492Z,100263.34
2022-08-16T14:33:32.926Z,100268.84
2022-08-16T14:36:07.025Z,100268.34
2022-08-16T14:38:39.208Z,100263.03
2022-08-16T14:41:10.400Z,100261.09
2022-08-16T14:43:40.529Z,100264.47
2022-08-16T14:46:10.611Z,100265.94
2022-08-16T14:48:42.677Z,100267.69
2022-08-16T14:51:15.957Z,100270.06
2022-08-16T14:53:45.894Z,100276.19
2022-08-16T14:56:38.906Z,100270.16
2022-08-16T14:59:12.236Z,100269.84
2022-08-16T15:01:58.194Z,100261.84
2022-08-16T15:04:39.367Z,100271.38
2022-08-16T15:07:13.847Z,100259.09
2022-08-16T15:09:59.991Z,100261.84
2022-08-16T15:12:33.454Z,100262.97
2022-08-16T15:15:13.001Z,100265.41
2022-08-16T15:17:55.899Z,100265.41
2022-08-16T15:20:29.452Z,100265.41
2022-08-16T15:23:05.312Z,100272.34
2022-08-16T15:25:41.380Z,100260.56
2022-08-16T15:28:31.016Z,100265.75
2022-08-16T15:31:04.230Z,100257.19
2022-08-16T15:33:39.367Z,100265.44
2022-08-16T15:36:18.292Z,100261.53
2022-08-16T15:39:03.894Z,100273.75
2022-08-16T15:42:06.793Z,100271.94
2022-08-16T15:44:51.907Z,100273.38
2022-08-16T15:47:26.227Z,100264.84
2022-08-16T15:49:58.076Z,100267.09
2022-08-16T15:52:30.897Z,100264.66
2022-08-16T15:55:12.617Z,100264.97
2022-08-16T15:57:54.192Z,100259.91
2022-08-16T16:00:27.006Z,100260.97
2022-08-16T16:03:03.980Z,100268.66
2022-08-16T16:05:38.579Z,100273.25
2022-08-16T16:08:11.009Z,100274.69
2022-08-16T16:10:54.108Z,100276.31
2022-08-16T16:13:25.575Z,100273.44
2022-08-16T16:15:58.462Z,100267.66
2022-08-16T16:18:30.092Z,100265.72
2022-08-16T16:21:02.924Z,100272.53
2022-08-16T16:23:35.295Z,100273.31
2022-08-16T16:26:14.882Z,100268.66
2022-08-16T16:29:07.719Z,100280.44
2022-08-16T16:31:39.685Z,100277.41
2022-08-16T16:34:10.072Z,100275.06
2022-08-16T16:36:48.351Z,100277.00
2022-08-16T16:39:18.551Z,100277.00
2022-08-16T16:41:51.083Z,100272.63
2022-08-16T16:44:32.067Z,100285.03
2022-08-16T16:47:03.819Z,100288.59
2022-08-16T16:49:33.941Z,100289.53
2022-08-16T16:52:06.510Z,100288.34
2022-08-16T16:54:37.078Z,100295.63
2022-08-16T16:57:30.332Z,100295.94
2022-08-16T16:59:57.838Z,100300.69
2022-08-16T17:02:41.072Z,100308.63
2022-08-16T17:05:17.574Z,100302.31
2022-08-16T17:07:47.790Z,100303.25
2022-08-16T17:10:46.081Z,100309.84
2022-08-16T17:13:11.577Z,100304.34
2022-08-16T17:15:41.517Z,100305.47
2022-08-16T17:19:14.478Z,100316.44
2022-08-16T17:21:01.259Z,100320.50
2022-08-16T17:23:58.464Z,100320.81
2022-08-16T17:26:21.743Z,100316.94
2022-08-16T17:29:10.737Z,100316.75
2022-08-16T17:31:43.494Z,100317.88
2022-08-16T17:34:29.402Z,100329.94
2022-08-16T17:37:04.968Z,100326.69
2022-08-16T17:39:59.912Z,100324.56
2022-08-16T17:42:28.285Z,100332.00
2022-08-16T17:45:01.289Z,100332.59
2022-08-16T17:47:32.991Z,100323.88
2022-08-16T17:50:02.882Z,100339.50
2022-08-16T17:52:34.095Z,100336.56
2022-08-16T17:55:08.593Z,100336.38
2022-08-16T17:57:38.983Z,100332.00
2022-08-16T18:00:18.299Z,100346.28
2022-08-16T18:02:51.870Z,100341.94
2022-08-16T18:05:22.535Z,100340.88
2022-08-16T18:07:52.766Z,100340.69
2022-08-16T18:10:33.566Z,100339.88
2022-08-16T18:13:07.856Z,100344.84
2022-08-16T18:15:43.352Z,100348.50
2022-08-16T18:18:13.388Z,100349.63
2022-08-16T18:20:55.775Z,100350.53
2022-08-16T18:23:28.036Z,100353.06
2022-08-16T18:25:59.895Z,100350.44
2022-08-16T18:28:31.365Z,100352.66
2022-08-16T18:31:05.673Z,100357.13
2022-08-16T18:33:43.092Z,100352.25
2022-08-16T18:36:20.060Z,100359.97
2022-08-16T18:38:51.706Z,100358.31
2022-08-16T18:41:22.183Z,100355.97
2022-08-16T18:44:23.827Z,100368.59
2022-08-16T18:46:50.926Z,100370.63
2022-08-16T18:49:21.337Z,100373.97
2022-08-16T18:51:51.232Z,100372.94
2022-08-16T18:54:24.550Z,100368.06
2022-08-16T18:56:57.405Z,100375.25
2022-08-16T18:59:30.063Z,100379.72
2022-08-16T19:02:05.641Z,100378.66
2022-08-16T19:04:50.531Z,100384.72
2022-08-16T19:07:31.245Z,100389.38
2022-08-16T19:10:02.818Z,100384.81
2022-08-16T19:12:38.191Z,100389.25
2022-08-16T19:15:20.929Z,100394.81
2022-08-16T19:17:53.392Z,100395.41
2022-08-16T19:20:25.690Z,100393.25
2022-08-16T19:23:05.047Z,100397.38
2022-08-16T19:25:47.883Z,100404.25
2022-08-16T19:28:51.092Z,100403.22
2022-08-16T19:31:14.643Z,100403.50
2022-08-16T19:33:54.478Z,100401.63
2022-08-16T19:36:32.065Z,100408.00
2022-08-16T19:39:05.964Z,100407.19
2022-08-16T19:41:38.183Z,100410.00
2022-08-16T19:44:09.845Z,100413.31
2022-08-16T19:46:41.821Z,100415.84
2022-08-16T19:49:15.912Z,100424.09
2022-08-16T19:51:46.219Z,100418.13
2022-08-16T19:54:16.572Z,100421.97
2022-08-16T19:56:46.620Z,100427.19
2022-08-16T19:59:19.810Z,100425.56
2022-08-16T20:01:52.448Z,100420.69
2022-08-16T20:04:26.968Z,100420.72
2022-08-16T20:06:57.357Z,100423.75
2022-08-16T20:09:27.722Z,100418.03
2022-08-16T20:11:58.595Z,100426.53
2022-08-16T20:14:28.473Z,100427.94
2022-08-16T20:17:00.284Z,100416.78
2022-08-16T20:19:40.157Z,100419.50
2022-08-16T20:22:51.752Z,100421.72
2022-08-16T20:25:20.624Z,100426.66
2022-08-16T20:27:59.421Z,100433.53
2022-08-16T20:30:29.945Z,100433.28
2022-08-16T20:32:59.936Z,100437.94
2022-08-16T20:35:32.845Z,100434.69
2022-08-16T20:38:04.264Z,100429.50
2022-08-16T20:40:35.892Z,100433.63
2022-08-16T20:43:09.717Z,100434.78
2022-08-16T20:45:40.463Z,100438.31
2022-08-16T20:48:10.685Z,100436.97
2022-08-16T20:50:44.018Z,100445.75
2022-08-16T20:53:14.372Z,100446.34
2022-08-16T20:55:44.820Z,100445.28
2022-08-16T20:58:14.630Z,100441.50
2022-08-16T21:00:47.931Z,100445.34
2022-08-16T21:03:17.867Z,100445.94
2022-08-16T21:05:50.326Z,100445.66
2022-08-16T21:08:50.844Z,100437.75
2022-08-16T21:11:10.533Z,100438.34
2022-08-16T21:13:43.159Z,100433.44
2022-08-16T21:16:14.118Z,100433.19
2022-08-16T21:18:43.930Z,100429.13
2022-08-16T21:21:16.349Z,100431.91
2022-08-16T21:23:46.277Z,100435.72
2022-08-16T21:26:16.121Z,100430.84
2022-08-16T21:28:45.971Z,100427.59
2022-08-16T21:31:17.576Z,100424.34
2022-08-16T21:33:55.116Z,100422.72
2022-08-16T21:36:35.248Z,100426.53
2022-08-16T21:39:07.888Z,100435.81
2022-08-16T21:41:38.922Z,100435.59
2022-08-16T21:44:08.892Z,100441.31
2022-08-16T21:46:38.745Z,100435.34
2022-08-16T21:49:08.559Z,100434.00
2022-08-16T21:51:41.052Z,100432.66
2022-08-16T21:54:11.174Z,100438.13
2022-08-16T21:56:40.954Z,100434.06
2022-08-16T21:59:11.104Z,100436.25
2022-08-16T22:01:43.679Z,100439.00
2022-08-16T22:04:36.953Z,100437.66
2022-08-16T22:07:06.997Z,100440.91
2022-08-16T22:09:37.634Z,100441.47
2022-08-16T22:12:08.635Z,100443.69
2022-08-16T22:14:38.922Z,100445.31
2022-08-16T22:17:08.753Z,100447.50
2022-08-16T22:19:39.022Z,100457.34
2022-08-16T22:22:11.711Z,100453.84
2022-08-16T22:24:41.711Z,100459.31
2022-08-16T22:27:11.685Z,100466.94
2022-08-16T22:29:42.321Z,100463.69
2022-08-16T22:32:12.464Z,100462.88
2022-08-16T22:34:42.337Z,100471.34
2022-08-16T22:37:14.755Z,100468.38
2022-08-16T22:39:44.844Z,100468.91
2022-08-16T22:42:14.835Z,100471.38
2022-08-16T22:44:46.432Z,100478.22
2022-08-16T22:47:16.782Z,100471.13
2022-08-16T22:49:47.960Z,100466.25
2022-08-16T22:52:40.977Z,100472.78
2022-08-16T22:55:12.292Z,100474.69
2022-08-16T22:57:42.102Z,100478.00
2022-08-16T23:00:15.775Z,100464.09
2022-08-16T23:03:03.189Z,100465.22
2022-08-16T23:05:36.073Z,100472.56
2022-08-16T23:08:11.428Z,100470.94
2022-08-16T23:10:41.263Z,100466.06
2022-08-16T23:13:12.275Z,100471.53
2022-08-16T23:15:43.695Z,100463.06
2022-08-16T23:18:15.410Z,100463.63
2022-08-16T23:20:45.295Z,100466.34
2022-08-16T23:23:21.581Z,100476.69
2022-08-16T23:25:54.931Z,100467.97
2022-08-16T23:28:28.194Z,100454.91
2022-08-16T23:30:59.405Z,100460.91
2022-08-16T23:33:31.338Z,100467.22
2022-08-16T23:36:03.196Z,100457.69
2022-08-16T23:38:39.607Z,100456.63
2022-08-16T23:41:14.389Z,100458.81
2022-08-16T23:43:46.242Z,100453.91
2022-08-16T23:46:19.562Z,100450.66
2022-08-16T23:49:58.644Z,100452.28
2022-08-16T23:51:39.757Z,100452.00
2022-08-16T23:54:12.155Z,100441.94
2022-08-16T23:56:42.053Z,100447.41
2022-08-16T23:59:11.854Z,100449.84
